Aviation Digital Data Service (ADDS)

Output produced by METARs form (2231 UTC 23 May 2018)
found at http://aviationweather.gov/adds/metars/
 
CYYZ 232200Z 36013G18KT 15SM BKN260 25/08 A3007 RMK CI6 SLP185 DENSITY ALT 1700FT
CYYZ 232100Z 35016KT 15SM FEW045 SCT260 25/08 A3007 RMK CF1CI4 CF TR SLP183 DENSITY ALT 1700FT
CYYZ 232000Z 34014G21KT 15SM FEW045 SCT260 25/10 A3006 RMK CF1CI3 CF TR SLP181 DENSITY ALT 1800FT
TAF CYYZ 232038Z 2321/2424 34012G22KT P6SM FEW050 SCT250 
     BECMG 2322/2324 34010KT 
     FM240500 VRB03KT P6SM SKC 
     BECMG 2415/2417 16010KT 
     BECMG 2422/2424 23007KT RMK NXT FCST BY 240000Z
       
CYKF 232200Z AUTO 30009G15KT 280V350 9SM CLR 24/10 A3011 RMK SLP198 DENSITY ALT 2000FT
CYKF 232100Z AUTO 32011G18KT 9SM CLR 24/09 A3011 RMK SLP196 DENSITY ALT 2100FT
CYKF 232000Z AUTO 30012G17KT 280V340 9SM CLR 24/12 A3010 RMK SLP195 DENSITY ALT 2100FT
TAF CYKF 231938Z 2320/2408 33015KT P6SM FEW250 
     BECMG 2322/2324 32007KT 
     BECMG 2401/2403 VRB03KT RMK FCST BASED ON AUTO OBS. NXT FCST BY 240200Z
       
CYBN 232200Z AUTO 33008KT 300V360 9SM CLR 21/08 A3010 RMK SLP195
CYBN 232100Z AUTO 34011G16KT 310V010 9SM CLR 22/08 A3010 RMK SLP195
CYBN 232000Z AUTO 33008G17KT 300V010 9SM CLR 22/08 A3010 RMK PCPN 0.5MM PAST HR SLP194
TAF CYBN 231730Z 2318/2406 33008KT P6SM FEW250 
     BECMG 2402/2404 VRB03KT RMK FCST BASED ON AUTO OBS. NXT FCST BY 240000Z
       
CYXU 232200Z 30008KT 15SM FEW250 23/07 A3015 RMK CI1 SLP211 DENSITY ALT 1800FT
CYXU 232100Z 29010G15KT 15SM FEW250 23/06 A3014 RMK CI2 SLP207 DENSITY ALT 1900FT
CYXU 232000Z 30009G17KT 260V320 15SM SCT250 23/08 A3014 RMK CI3 SLP206 DENSITY ALT 1900FT
TAF CYXU 231739Z 2318/2418 31012KT P6SM SCT250 
     BECMG 2400/2402 VRB03KT 
     FM241400 28007KT P6SM SKC RMK NXT FCST BY 240000Z
       
CYHM 232200Z 32008KT 270V330 15SM FEW040 BKN250 25/09 A3009 RMK CU1CI5 CU TR CONTRAILS SLP191 DENSITY ALT 1900FT
CYHM 232100Z 31009G17KT 15SM FEW045 BKN250 26/11 A3009 RMK CU1CI5 CU TR CONTRAILS SLP188 DENSITY ALT 2000FT
CYHM 232000Z 28014G19KT 15SM FEW045 SCT250 26/09 A3008 RMK CU1CI3 CU TR SLP186 DENSITY ALT 2000FT
TAF CYHM 231739Z 2318/2418 26012KT P6SM SKC 
     BECMG 2323/2401 32006KT 
     FM240500 VRB03KT P6SM SKC 
     BECMG 2412/2414 25006KT RMK NXT FCST BY 240000Z
       
CYQA 232200Z AUTO 29010G16KT 9SM 22/07 A3006 RMK CLD MISG SLP183 DENSITY ALT 1800FT
CYQA 232100Z AUTO 27010G18KT 250V310 9SM 22/09 A3006 RMK CLD MISG SLP182 DENSITY ALT 1700FT
CYQA 232000Z AUTO 27012G18KT 9SM 22/10 A3005 RMK CLD MISG SLP180 DENSITY ALT 1700FT
TAF CYQA 231938Z 2320/2402 28010G20KT P6SM SKC 
     BECMG 2322/2324 28010KT RMK FCST BASED ON AUTO OBS. FCST BASED ON OBS OBTAINED FM OTHER SOURCES. NXT FCST WILL BE ISSUED AT 241145Z
       
CYVV 232200Z 25007KT 15SM FEW250 17/08 A3013 RMK CS2 SLP209 DENSITY ALT 1000FT
CYVV 232100Z 26007KT 15SM BKN250 19/09 A3013 RMK CI6 SLP207 DENSITY ALT 1100FT
CYVV 232000Z 27006KT 15SM BKN250 19/10 A3012 RMK CI6 SLP205 DENSITY ALT 1200FT
TAF CYVV 231938Z 2320/2323 25007KT P6SM SCT250 RMK NXT FCST WILL BE ISSUED AT 241045Z
       
CYZR 232200Z AUTO 01005KT 9SM CLR 18/09 A3016 RMK SLP218 DENSITY ALT 700FT
CYZR 232100Z AUTO 02008KT 9SM CLR 18/08 A3016 RMK SLP218 DENSITY ALT 800FT
CYZR 232000Z AUTO 04007KT 9SM CLR 18/09 A3016 RMK SLP218 DENSITY ALT 700FT
TAF CYZR 231938Z 2320/2402 03012KT P6SM FEW250 
     BECMG 2323/2401 VRB03KT RMK FCST BASED ON AUTO OBS. NXT FCST WILL BE ISSUED AT 240745Z
       
CYPQ 232200Z AUTO 30011G18KT 9SM CLR 24/11 A3002 RMK SLP168 DENSITY ALT 1700FT
CYPQ 232100Z AUTO 30010G20KT 9SM CLR 25/09 A3002 RMK SLP166 DENSITY ALT 1800FT
CYPQ 232000Z AUTO 31011G18KT 9SM CLR 25/11 A3001 RMK SLP163 DENSITY ALT 1700FT
TAF CYPQ 231938Z 2320/2402 32012G22KT P6SM SKC 
     BECMG 2400/2402 VRB03KT RMK FCST BASED ON AUTO OBS. NXT FCST WILL BE ISSUED AT 240945Z
       
CWLS 232200Z AUTO 31005KT 22/10 RMK AO1 SLP204 T02230101 53001
CWLS 232100Z AUTO 33006KT 22/10 RMK AO1 SLP204 T02210096 53001
CWLS 232000Z AUTO 33004KT 22/10 RMK AO1 SLP201 T02190098 56005
CWCO 232200Z AUTO 32007KT 19/09 RMK AO1 7001 SLP193 T01930088 50002
CWCO 232100Z AUTO 35007KT 15/08 RMK AO1 5001 SLP197 T01500083 50002
CWCO 232000Z AUTO 33010KT 17/10 RMK AO1 2PAST HR 6006 SLP195 P0001 T01730099 50002